Portada
METAR-TAF:

METAR-TAF

Aeroports :

Los Mochis, Mèxic

latitud: 25-41N, longitud: 109-05W, altitud: 4 m

Observació

L'informe es va fer fa 36 minuts, a les 01:41 UTC
Vent 9 kt del Nord-Oest
Temperatura 18°C
Humitat 56%
Pressió 1015 hPa
Visibilitat: 16.1 km
Cel clar

METAR: MMLM 270141Z 31009KT 10SM SKC 18/09 A2996

Hora: 19:17 (02:17 UTC)

Pronòstic

L'informe es va fer fa 9 hores i 34 minuts, a les 16:43 UTC
Pronòstic vàlid del 26 a les 18 UTC al 27 a les 18 UTC
Vent 10 kt del Oest/Nord-Oest amb ràfegues de 20 kt
Visibilitat: 10 km
Cel clar
Evolucionant progressivament
l' 27 a les 02 UTC al 27 a les 03 UTC
Vent 10 kt del Nord-Oest
A partir de les 27 a les 1000 UTC
Vent kt del Nord
Visibilitat: 4.8 km
Núvols disperses a una alçada de 1000 ft
calitja
A partir de les 27 a les 1600 UTC
Vent 10 kt del Nord-Oest
Visibilitat: 10 km
Cel clar

TAF: MMLM 261643Z 2618/2718 30010G20KT P6SM SKC BECMG 2702/2703 32010KT FM271000 00000KT 3SM HZ SCT010 FM271600 32010KT P6SM SKC

Observacions i pronòstics meteorològics de més de 4000 aeroports (METAR i TAF).

Les estacions disponibles són els punts grocs i vermells al mapa.

Posi el ratolí al punt desitjat per veure el nom de l'estació.

Feu clic per veure les observacions i els pronòstics meteorològics.

Per canviar el mapa: feu clic els botons verds amb una creu de color negre per apropar; al botó verd amb un guió per allunyar la imatge; o en les fletxes verdes per a mapes adjacents.


METAR-TAF: